Time;durP1;ratioP1;P1;durP2;ratioP2;P2;SDS_P1;SDS_P2;PMS_P1;PMS_P2;Temp;Humidity;BMP_temperature;BMP_pressure;BME280_temperature;BME280_humidity;BME280_pressure;Samples;Min_cycle;Max_cycle;Signal;HPM_P1;HPM_P2
2022/04/01 00:01:15;;;;;;;9.77;8.87;;;4.80;99.90;;;;;;5029980;28;20529;-70
2022/04/01 00:03:41;;;;;;;10.30;9.40;;;4.90;99.90;;;;;;5029409;28;20623;-71
2022/04/01 00:06:06;;;;;;;9.40;8.50;;;4.70;99.90;;;;;;5029866;28;20710;-71
2022/04/01 00:08:31;;;;;;;10.00;9.10;;;4.70;99.90;;;;;;5029928;28;20182;-71
2022/04/01 00:10:57;;;;;;;9.90;8.90;;;4.70;99.90;;;;;;5029394;28;20674;-71
2022/04/01 00:13:23;;;;;;;8.67;7.87;;;4.70;99.90;;;;;;5029774;28;20170;-71
2022/04/01 00:15:50;;;;;;;9.83;8.87;;;4.80;99.90;;;;;;5029756;28;20409;-71
2022/04/01 00:18:16;;;;;;;10.87;9.87;;;4.80;99.90;;;;;;5029568;28;20169;-71
2022/04/01 00:20:41;;;;;;;11.10;9.77;;;4.70;99.90;;;;;;5029133;28;20518;-71
2022/04/01 00:23:07;;;;;;;10.10;9.10;;;4.60;99.90;;;;;;5016070;28;20873;-71
2022/04/01 00:25:32;;;;;;;11.03;10.03;;;4.50;99.90;;;;;;5009053;28;20666;-70
2022/04/01 00:27:58;;;;;;;10.33;9.33;;;4.50;99.90;;;;;;5009715;28;20220;-71
2022/04/01 00:30:23;;;;;;;10.63;9.50;;;4.50;99.90;;;;;;5009762;28;20199;-71
2022/04/01 00:32:49;;;;;;;10.20;9.20;;;4.50;99.90;;;;;;5009336;28;20196;-71
2022/04/01 00:35:15;;;;;;;10.40;9.30;;;4.50;99.90;;;;;;5008573;28;20205;-71
2022/04/01 00:37:40;;;;;;;11.43;10.03;;;4.20;99.90;;;;;;5011864;28;20284;-71
2022/04/01 00:40:06;;;;;;;11.07;10.00;;;4.20;99.90;;;;;;5009655;28;20199;-71
2022/04/01 00:42:32;;;;;;;11.27;10.17;;;4.30;99.90;;;;;;5010609;28;20183;-71
2022/04/01 00:44:58;;;;;;;11.80;10.53;;;4.40;99.90;;;;;;5009938;28;20792;-71
2022/04/01 00:47:24;;;;;;;10.47;9.40;;;4.50;99.90;;;;;;5009569;28;20415;-71
2022/04/01 00:49:50;;;;;;;10.23;9.20;;;4.20;99.90;;;;;;5009204;28;20207;-71
2022/04/01 00:52:17;;;;;;;11.10;9.90;;;4.20;99.90;;;;;;5012837;28;20985;-71
2022/04/01 00:54:43;;;;;;;11.17;10.10;;;4.30;99.90;;;;;;5028569;28;20211;-71
2022/04/01 00:57:11;;;;;;;10.77;9.37;;;4.40;99.90;;;;;;5028816;28;20411;-71
2022/04/01 00:59:37;;;;;;;11.50;10.30;;;4.40;99.90;;;;;;5028727;28;21001;-71
2022/04/01 01:02:04;;;;;;;10.50;9.50;;;4.30;99.90;;;;;;5028212;28;20420;-71
2022/04/01 01:04:30;;;;;;;9.70;8.80;;;4.40;99.90;;;;;;5028752;28;20198;-71
2022/04/01 01:06:58;;;;;;;10.93;9.83;;;4.50;99.90;;;;;;5028494;28;20539;-71
2022/04/01 01:09:25;;;;;;;9.80;8.80;;;4.40;99.90;;;;;;5024624;28;20423;-71
2022/04/01 01:11:52;;;;;;;10.17;9.17;;;4.50;99.90;;;;;;5008920;28;20899;-71
2022/04/01 01:14:25;;;;;;;10.23;9.20;;;4.40;99.90;;;;;;5009014;28;20508;-71
2022/04/01 01:16:51;;;;;;;10.43;9.30;;;4.50;99.90;;;;;;5008501;28;20777;-71
2022/04/01 01:19:17;;;;;;;10.80;9.80;;;4.60;99.90;;;;;;5008840;28;20430;-71
2022/04/01 01:21:45;;;;;;;9.83;8.83;;;4.60;99.90;;;;;;5011675;28;20175;-71
2022/04/01 01:24:16;;;;;;;11.17;10.00;;;4.70;99.90;;;;;;5028198;28;20442;-71
2022/04/01 01:26:50;;;;;;;10.27;9.27;;;4.70;99.90;;;;;;5010080;28;20846;-71
2022/04/01 01:29:21;;;;;;;9.47;8.63;;;4.70;99.90;;;;;;5028180;28;20413;-71
2022/04/01 01:31:46;;;;;;;9.77;8.80;;;4.60;99.90;;;;;;5028024;28;20417;-71
2022/04/01 01:34:12;;;;;;;11.13;9.37;;;4.40;99.90;;;;;;5028372;28;20443;-71
2022/04/01 01:36:40;;;;;;;10.40;9.30;;;4.30;99.90;;;;;;5028243;28;20220;-71
2022/04/01 01:39:06;;;;;;;10.43;9.40;;;4.10;99.90;;;;;;5027968;28;20181;-70
2022/04/01 01:41:31;;;;;;;11.77;10.67;;;4.10;99.90;;;;;;5028320;28;20422;-70
2022/04/01 01:43:57;;;;;;;9.70;8.90;;;4.10;99.90;;;;;;5026849;28;20737;-70
2022/04/01 01:46:23;;;;;;;9.77;8.87;;;4.00;99.90;;;;;;5027474;28;20206;-72
2022/04/01 01:48:48;;;;;;;9.10;8.07;;;3.80;99.90;;;;;;5010174;28;20663;-71
2022/04/01 01:56:45;;;;;;;10.87;8.87;;;3.70;99.90;;;;;;5028606;28;20432;-71
2022/04/01 01:59:11;;;;;;;10.27;9.20;;;3.70;99.90;;;;;;5028019;28;20409;-70
2022/04/01 02:01:38;;;;;;;9.93;8.93;;;3.80;99.90;;;;;;5027490;28;20421;-71
2022/04/01 02:04:04;;;;;;;9.17;8.37;;;3.90;99.90;;;;;;5027428;28;20482;-71
2022/04/01 02:06:30;;;;;;;10.87;9.43;;;4.10;99.90;;;;;;5027607;28;20466;-71
2022/04/01 02:08:55;;;;;;;9.70;8.70;;;4.20;99.90;;;;;;5027554;28;20224;-71
2022/04/01 02:11:22;;;;;;;9.80;8.90;;;4.10;99.90;;;;;;5027152;28;20209;-70
2022/04/01 02:13:48;;;;;;;9.90;9.00;;;4.00;99.90;;;;;;5027893;28;20210;-71
2022/04/01 02:16:14;;;;;;;9.20;8.40;;;4.00;99.90;;;;;;5027443;28;20445;-70
2022/04/01 02:18:41;;;;;;;10.60;9.30;;;4.00;99.90;;;;;;5027868;28;20414;-70
2022/04/01 02:21:10;;;;;;;9.50;8.50;;;4.00;99.90;;;;;;5027070;28;20434;-70
2022/04/01 02:23:40;;;;;;;8.83;7.97;;;4.00;99.90;;;;;;4992218;28;20430;-70
2022/04/01 02:26:07;;;;;;;7.97;7.17;;;4.00;99.90;;;;;;5007852;28;20459;-70
2022/04/01 02:28:40;;;;;;;9.53;8.63;;;4.00;99.90;;;;;;5008024;28;20412;-71
2022/04/01 02:31:06;;;;;;;9.83;8.87;;;4.00;99.90;;;;;;5006999;28;20422;-71
2022/04/01 02:33:34;;;;;;;8.23;7.53;;;4.00;99.90;;;;;;5007827;28;20421;-71
2022/04/01 02:36:02;;;;;;;9.30;8.37;;;3.90;99.90;;;;;;5007733;28;20424;-71
2022/04/01 02:38:29;;;;;;;8.90;8.00;;;4.00;99.90;;;;;;5008364;28;20465;-71
2022/04/01 02:40:56;;;;;;;8.53;7.80;;;3.90;99.90;;;;;;5007476;28;20445;-71
2022/04/01 02:43:22;;;;;;;8.20;7.40;;;3.90;99.90;;;;;;5007657;28;20423;-71
2022/04/01 02:45:48;;;;;;;7.57;6.87;;;4.00;99.90;;;;;;5006938;28;20454;-71
2022/04/01 02:48:15;;;;;;;9.60;8.20;;;4.00;99.90;;;;;;5007993;28;20899;-70
2022/04/01 02:50:46;;;;;;;8.80;7.27;;;3.70;99.90;;;;;;5007218;28;20551;-71
2022/04/01 02:53:12;;;;;;;8.20;7.27;;;3.60;99.90;;;;;;5017745;28;20432;-71
2022/04/01 02:55:39;;;;;;;8.10;7.20;;;3.60;99.90;;;;;;5027298;28;20544;-70
2022/04/01 02:58:06;;;;;;;8.83;7.40;;;3.60;99.90;;;;;;5010888;28;20727;-71
2022/04/01 03:00:37;;;;;;;7.80;7.10;;;3.60;99.90;;;;;;5030395;28;20422;-70
2022/04/01 03:03:06;;;;;;;8.43;7.63;;;3.50;99.90;;;;;;5031535;28;20398;-71
2022/04/01 03:05:32;;;;;;;7.17;6.57;;;3.60;99.90;;;;;;5013052;28;20473;-70
2022/04/01 03:07:58;;;;;;;8.10;7.30;;;3.60;99.90;;;;;;5030503;28;20445;-70
2022/04/01 03:10:24;;;;;;;7.00;6.40;;;3.70;99.90;;;;;;5030254;28;20468;-71
2022/04/01 03:12:50;;;;;;;7.77;6.90;;;3.70;99.90;;;;;;5031076;28;20167;-70
2022/04/01 03:15:16;;;;;;;7.13;6.53;;;3.70;99.90;;;;;;5012139;28;20433;-70
2022/04/01 03:17:43;;;;;;;7.47;6.43;;;3.80;99.90;;;;;;5012871;28;20421;-70
2022/04/01 03:20:13;;;;;;;8.80;6.70;;;3.70;99.90;;;;;;5030419;28;20411;-70
2022/04/01 03:22:43;;;;;;;7.40;6.30;;;3.60;99.90;;;;;;5030517;28;20431;-70
2022/04/01 03:25:15;;;;;;;8.20;7.33;;;3.60;99.90;;;;;;5030464;28;20437;-71
2022/04/01 03:27:40;;;;;;;11.03;7.77;;;3.50;99.90;;;;;;5030049;28;20461;-70
2022/04/01 03:30:11;;;;;;;8.27;7.47;;;3.40;99.90;;;;;;5030012;28;20460;-69
2022/04/01 03:32:41;;;;;;;7.57;6.77;;;3.40;99.90;;;;;;5030454;28;20644;-70
2022/04/01 03:35:15;;;;;;;7.43;6.70;;;3.50;99.90;;;;;;5030172;28;20429;-70
2022/04/01 03:37:42;;;;;;;7.40;6.70;;;3.60;99.90;;;;;;5012118;28;20922;-71
2022/04/01 03:40:10;;;;;;;8.03;7.33;;;3.50;99.90;;;;;;5030403;28;20442;-72
2022/04/01 03:42:35;;;;;;;7.63;6.93;;;3.60;99.90;;;;;;5029961;28;20409;-71
2022/04/01 03:45:03;;;;;;;8.00;7.20;;;3.60;99.90;;;;;;5029609;28;21118;-71
2022/04/01 03:47:38;;;;;;;7.07;6.40;;;3.60;99.90;;;;;;5030403;28;20219;-71
2022/04/01 03:50:04;;;;;;;7.30;6.60;;;3.60;99.90;;;;;;5030021;28;20508;-71
2022/04/01 03:52:32;;;;;;;7.47;6.87;;;3.60;99.90;;;;;;5030134;28;20453;-71
2022/04/01 03:55:03;;;;;;;7.50;6.80;;;3.70;99.90;;;;;;5029999;28;20457;-69
2022/04/01 03:57:35;;;;;;;6.90;6.30;;;3.70;99.90;;;;;;5029449;28;20440;-70
2022/04/01 04:00:00;;;;;;;7.57;6.77;;;3.60;99.90;;;;;;5029654;28;20551;-70
2022/04/01 04:02:26;;;;;;;6.47;5.80;;;3.70;99.90;;;;;;5012233;28;20508;-70
2022/04/01 04:04:55;;;;;;;7.57;6.87;;;3.60;99.90;;;;;;5011811;28;20456;-70
2022/04/01 04:07:23;;;;;;;8.50;6.90;;;3.40;99.90;;;;;;5010649;28;20465;-69
2022/04/01 04:09:49;;;;;;;8.40;7.00;;;3.40;99.90;;;;;;5029464;28;20475;-70
2022/04/01 04:12:18;;;;;;;8.17;7.43;;;3.30;99.90;;;;;;5030986;28;20491;-70
2022/04/01 04:14:43;;;;;;;8.40;6.80;;;3.40;99.90;;;;;;5031143;28;20434;-71
2022/04/01 04:17:14;;;;;;;8.00;7.30;;;3.50;99.90;;;;;;5029124;28;20914;-70
2022/04/01 04:19:50;;;;;;;7.90;7.17;;;3.50;99.90;;;;;;5030908;28;20185;-71
2022/04/01 04:22:26;;;;;;;7.93;6.50;;;3.50;99.90;;;;;;5023574;28;20514;-72
2022/04/01 04:24:58;;;;;;;6.93;6.23;;;3.40;99.90;;;;;;5009982;28;20465;-71
2022/04/01 04:27:36;;;;;;;6.97;6.33;;;3.40;99.90;;;;;;5010423;28;20581;-71
2022/04/01 04:30:08;;;;;;;6.70;6.00;;;3.50;99.90;;;;;;5009096;28;20421;-72
2022/04/01 04:32:33;;;;;;;7.53;6.73;;;3.60;99.90;;;;;;5009614;28;20558;-71
2022/04/01 04:35:04;;;;;;;6.20;5.70;;;3.60;99.90;;;;;;5009362;28;20426;-72
2022/04/01 04:37:34;;;;;;;6.67;6.03;;;3.30;99.90;;;;;;5009020;28;20183;-72
2022/04/01 04:40:01;;;;;;;6.17;5.67;;;3.40;99.90;;;;;;5010058;28;20954;-70
2022/04/01 04:42:28;;;;;;;5.93;5.43;;;3.50;99.90;;;;;;5009418;28;21008;-70
2022/04/01 04:44:54;;;;;;;6.77;6.10;;;3.50;99.90;;;;;;5008756;28;20935;-70
2022/04/01 04:47:28;;;;;;;6.30;5.70;;;3.50;99.90;;;;;;4991289;28;20481;-70
2022/04/01 04:49:57;;;;;;;6.67;6.03;;;3.30;99.90;;;;;;5009937;28;20456;-70
2022/04/01 04:52:29;;;;;;;7.70;7.00;;;3.10;99.90;;;;;;5008593;28;20434;-70
2022/04/01 04:54:55;;;;;;;8.03;7.00;;;3.30;99.90;;;;;;5008892;28;20450;-71
2022/04/01 04:57:21;;;;;;;7.40;6.57;;;3.40;99.90;;;;;;5008842;28;20425;-70
2022/04/01 04:59:48;;;;;;;7.03;6.37;;;3.50;99.90;;;;;;5009620;28;21194;-72
2022/04/01 05:02:32;;;;;;;7.23;6.63;;;3.30;99.90;;;;;;5008984;28;20414;-70
2022/04/01 05:05:09;;;;;;;6.57;5.83;;;3.30;99.90;;;;;;5009234;28;20505;-71
2022/04/01 05:07:56;;;;;;;8.03;7.30;;;3.30;99.90;;;;;;4990945;28;20414;-70
2022/04/01 05:10:34;;;;;;;7.50;6.80;;;3.40;99.90;;;;;;4992214;28;21016;-71
2022/04/01 05:13:10;;;;;;;6.50;5.90;;;3.40;99.90;;;;;;5008678;28;20395;-72
2022/04/01 05:15:37;;;;;;;9.30;7.30;;;3.20;99.90;;;;;;5008750;28;20434;-72
2022/04/01 05:18:21;;;;;;;7.00;6.40;;;3.20;99.90;;;;;;5008749;28;20433;-71
2022/04/01 05:20:52;;;;;;;8.73;7.40;;;3.30;99.90;;;;;;4990929;28;20500;-71
2022/04/01 05:23:56;;;;;;;7.93;7.17;;;3.20;99.90;;;;;;5023714;28;20961;-71
2022/04/01 05:26:38;;;;;;;7.37;6.63;;;3.20;99.90;;;;;;5004338;28;20472;-71
2022/04/01 05:29:07;;;;;;;7.03;6.33;;;3.30;99.90;;;;;;5028188;28;20485;-71
2022/04/01 05:31:36;;;;;;;7.10;6.50;;;3.30;99.90;;;;;;5015659;28;20442;-72
2022/04/01 05:34:43;;;;;;;6.33;5.80;;;3.30;99.90;;;;;;5027646;28;20457;-72
2022/04/01 05:37:09;;;;;;;7.23;6.53;;;3.40;99.90;;;;;;5026793;28;20888;-69
2022/04/01 05:39:37;;;;;;;7.20;6.50;;;3.10;99.90;;;;;;5027237;28;20448;-72
2022/04/01 05:42:06;;;;;;;6.53;5.93;;;3.20;99.90;;;;;;5031329;28;20441;-71
2022/04/01 05:44:33;;;;;;;6.60;6.00;;;3.30;99.90;;;;;;5037669;28;20452;-71
2022/04/01 05:47:00;;;;;;;7.10;6.20;;;3.40;99.90;;;;;;5036821;28;20469;-71
2022/04/01 05:49:26;;;;;;;6.83;6.23;;;3.20;99.90;;;;;;5038219;28;20469;-71
2022/04/01 05:51:53;;;;;;;6.70;6.20;;;3.30;99.90;;;;;;5037803;28;20479;-71
2022/04/01 05:54:21;;;;;;;7.60;6.07;;;3.40;99.90;;;;;;5036965;28;20484;-71
2022/04/01 05:56:47;;;;;;;6.30;5.40;;;3.30;99.90;;;;;;5027327;28;20530;-70
2022/04/01 05:59:15;;;;;;;7.23;6.63;;;3.20;99.90;;;;;;5026674;28;20460;-70
2022/04/01 06:01:52;;;;;;;6.33;5.73;;;3.30;99.90;;;;;;5026615;28;20449;-70
2022/04/01 06:04:46;;;;;;;6.07;5.50;;;3.40;99.90;;;;;;5025768;28;20880;-70
2022/04/01 06:07:28;;;;;;;6.10;5.60;;;3.50;99.90;;;;;;5026104;28;20488;-70
2022/04/01 06:09:58;;;;;;;6.33;5.73;;;3.60;99.90;;;;;;5025825;28;20477;-70
2022/04/01 06:12:45;;;;;;;6.30;5.70;;;3.40;99.90;;;;;;5026896;28;20882;-70
2022/04/01 06:15:32;;;;;;;5.33;4.83;;;3.30;99.90;;;;;;5024068;28;20623;-70
2022/04/01 06:18:08;;;;;;;6.43;5.80;;;3.20;99.90;;;;;;5029076;28;21195;-71
2022/04/01 06:20:37;;;;;;;5.90;5.40;;;3.20;99.90;;;;;;5047301;28;20420;-71
2022/04/01 06:23:14;;;;;;;5.87;5.37;;;3.40;99.90;;;;;;5050222;28;20448;-71
2022/04/01 06:25:45;;;;;;;6.17;5.53;;;3.40;99.90;;;;;;5021778;28;20465;-71
2022/04/01 06:28:16;;;;;;;5.40;5.00;;;3.40;99.90;;;;;;5031113;28;20413;-71
2022/04/01 06:30:44;;;;;;;5.00;4.60;;;3.30;99.90;;;;;;5031476;28;20429;-71
2022/04/01 06:33:37;;;;;;;5.30;4.77;;;3.20;99.90;;;;;;5016805;28;20414;-71
2022/04/01 06:36:06;;;;;;;5.20;4.80;;;3.10;99.90;;;;;;5037678;28;20482;-71
2022/04/01 06:38:46;;;;;;;5.70;5.20;;;3.10;99.90;;;;;;5017298;28;20434;-71
2022/04/01 06:41:21;;;;;;;5.40;5.00;;;3.20;99.90;;;;;;5014720;28;20398;-71
2022/04/01 06:43:48;;;;;;;5.47;5.00;;;3.20;99.90;;;;;;5014651;28;20508;-71
2022/04/01 06:46:14;;;;;;;5.60;4.70;;;3.20;99.90;;;;;;5015304;28;20974;-71
2022/04/01 06:48:40;;;;;;;5.20;4.70;;;3.20;99.90;;;;;;5015594;28;20418;-71
2022/04/01 06:51:08;;;;;;;5.87;5.13;;;3.10;99.90;;;;;;5014370;28;20422;-71
2022/04/01 06:53:36;;;;;;;5.73;5.13;;;2.80;99.90;;;;;;5030843;28;20798;-71
2022/04/01 06:56:03;;;;;;;5.27;4.77;;;2.70;99.90;;;;;;5054077;28;20791;-71
2022/04/01 06:58:30;;;;;;;4.97;4.57;;;2.90;99.90;;;;;;5045306;28;20433;-72
2022/04/01 07:00:56;;;;;;;6.57;5.27;;;3.00;99.90;;;;;;5034207;28;20509;-71
2022/04/01 07:03:22;;;;;;;5.80;5.00;;;3.10;99.90;;;;;;5034428;28;20409;-72
2022/04/01 07:05:48;;;;;;;4.60;4.30;;;3.00;99.90;;;;;;5034119;28;20564;-71
2022/04/01 07:08:16;;;;;;;5.37;4.87;;;3.10;99.90;;;;;;5016053;28;20422;-72
2022/04/01 07:10:42;;;;;;;5.60;5.10;;;3.20;99.90;;;;;;5014130;28;20414;-71
2022/04/01 07:13:08;;;;;;;4.90;4.50;;;3.10;99.90;;;;;;5014414;28;20409;-71
2022/04/01 07:15:34;;;;;;;5.20;4.70;;;3.10;99.90;;;;;;5013814;28;20188;-72
2022/04/01 07:17:59;;;;;;;4.90;4.50;;;3.20;99.90;;;;;;5014337;28;20421;-72
2022/04/01 07:20:26;;;;;;;4.47;4.17;;;3.30;99.90;;;;;;5010188;28;20183;-72
2022/04/01 07:22:53;;;;;;;7.10;4.60;;;3.20;99.90;;;;;;5016254;28;20232;-72
2022/04/01 07:25:19;;;;;;;4.90;4.10;;;3.20;99.90;;;;;;5033439;28;20430;-72
2022/04/01 07:27:44;;;;;;;4.67;4.27;;;3.20;99.90;;;;;;5033899;28;20413;-72
2022/04/01 07:30:10;;;;;;;7.70;4.40;;;3.30;99.90;;;;;;5033186;28;20183;-71
2022/04/01 07:32:36;;;;;;;4.80;4.40;;;3.40;99.90;;;;;;5034142;28;20179;-72
2022/04/01 07:35:07;;;;;;;5.90;4.87;;;3.50;99.90;;;;;;5015590;28;20191;-72
2022/04/01 07:37:33;;;;;;;5.30;4.80;;;3.50;99.90;;;;;;5033993;28;20422;-71
2022/04/01 07:39:59;;;;;;;4.40;4.00;;;3.60;99.90;;;;;;5015628;28;20419;-71
2022/04/01 07:42:26;;;;;;;6.00;5.40;;;3.70;99.90;;;;;;5033367;28;20425;-72
2022/04/01 07:44:52;;;;;;;5.27;4.80;;;3.40;99.90;;;;;;5033196;28;20192;-71
2022/04/01 07:47:18;;;;;;;4.43;4.03;;;3.30;99.90;;;;;;5033445;28;20461;-72
2022/04/01 07:49:46;;;;;;;5.07;4.67;;;3.10;99.90;;;;;;5033252;28;20240;-71
2022/04/01 07:52:13;;;;;;;7.33;5.70;;;3.20;99.90;;;;;;5033365;28;20418;-72
2022/04/01 07:54:40;;;;;;;5.37;4.87;;;3.30;99.90;;;;;;5032730;28;20461;-71
2022/04/01 07:57:07;;;;;;;5.20;4.70;;;3.40;99.90;;;;;;5053428;28;20412;-71
2022/04/01 07:59:33;;;;;;;4.83;4.43;;;3.40;99.90;;;;;;5052940;28;20417;-72
2022/04/01 08:01:59;;;;;;;5.23;4.73;;;3.00;99.90;;;;;;5047163;28;20430;-72
2022/04/01 08:04:28;;;;;;;6.30;5.70;;;2.90;99.90;;;;;;5033475;28;20433;-71
2022/04/01 08:06:55;;;;;;;5.23;4.60;;;3.00;99.90;;;;;;5033431;28;20457;-71
2022/04/01 08:09:21;;;;;;;4.77;4.27;;;2.90;99.90;;;;;;5032969;28;20412;-72
2022/04/01 08:11:47;;;;;;;5.73;5.00;;;2.90;99.90;;;;;;5015244;28;20949;-72
2022/04/01 08:14:13;;;;;;;5.03;4.63;;;2.90;99.90;;;;;;5031956;28;20442;-71
2022/04/01 08:16:39;;;;;;;6.00;5.43;;;2.90;99.90;;;;;;5033167;28;20171;-72
2022/04/01 08:19:05;;;;;;;5.60;5.10;;;2.70;99.90;;;;;;5032860;28;20910;-71
2022/04/01 08:21:32;;;;;;;5.80;4.77;;;2.80;99.90;;;;;;5033103;28;20236;-71
2022/04/01 08:23:58;;;;;;;5.80;4.57;;;2.90;99.90;;;;;;5031726;28;21015;-72
2022/04/01 08:26:28;;;;;;;6.53;4.77;;;3.00;99.90;;;;;;5032513;28;20515;-71
2022/04/01 08:28:55;;;;;;;6.07;4.67;;;2.80;99.90;;;;;;5033251;28;20789;-72
2022/04/01 08:31:21;;;;;;;5.10;4.60;;;2.80;99.90;;;;;;5033077;28;20410;-72
2022/04/01 08:33:48;;;;;;;6.00;5.40;;;2.80;99.90;;;;;;5032737;28;20490;-72
2022/04/01 08:36:14;;;;;;;4.87;4.47;;;2.90;99.90;;;;;;5033668;28;20414;-72
2022/04/01 08:38:40;;;;;;;5.10;4.70;;;2.70;99.90;;;;;;5035550;28;21043;-72
2022/04/01 08:41:07;;;;;;;5.33;4.83;;;2.90;99.90;;;;;;5033525;28;20417;-70
2022/04/01 08:43:35;;;;;;;4.97;4.47;;;3.00;99.90;;;;;;5033574;28;20505;-70
2022/04/01 08:46:05;;;;;;;4.90;4.40;;;3.20;99.90;;;;;;5034235;28;20444;-70
2022/04/01 08:48:32;;;;;;;4.90;4.47;;;3.10;99.90;;;;;;5032872;28;20843;-70
2022/04/01 08:50:58;;;;;;;5.33;4.83;;;2.90;99.90;;;;;;5032124;28;20402;-70
2022/04/01 08:53:24;;;;;;;5.40;4.47;;;3.00;99.90;;;;;;5039254;28;20561;-70
2022/04/01 08:55:53;;;;;;;5.20;4.70;;;3.20;99.90;;;;;;5051667;28;20958;-70
2022/04/01 08:58:20;;;;;;;5.20;4.70;;;3.20;99.90;;;;;;5044415;28;20719;-71
2022/04/01 09:00:46;;;;;;;5.00;4.47;;;3.20;99.90;;;;;;5031767;28;20527;-71
2022/04/01 09:03:14;;;;;;;4.90;4.37;;;3.30;99.90;;;;;;5031970;28;20513;-71
2022/04/01 09:05:51;;;;;;;8.43;4.70;;;3.20;99.90;;;;;;5032366;28;20456;-70
2022/04/01 09:08:23;;;;;;;8.50;6.00;;;3.20;99.90;;;;;;5031876;28;20887;-72
2022/04/01 09:10:57;;;;;;;6.93;5.40;;;3.40;99.90;;;;;;5031576;28;20386;-72
2022/04/01 09:13:26;;;;;;;4.90;4.37;;;3.50;99.90;;;;;;5032231;28;20550;-72
2022/04/01 09:15:52;;;;;;;5.13;4.73;;;3.20;99.90;;;;;;5013965;28;20500;-72
2022/04/01 09:18:36;;;;;;;5.20;4.80;;;3.10;99.90;;;;;;5031748;28;20509;-72
2022/04/01 09:21:02;;;;;;;4.60;4.20;;;3.20;99.90;;;;;;5031171;28;20417;-72
2022/04/01 09:23:28;;;;;;;4.40;4.00;;;3.20;99.90;;;;;;5032039;28;20405;-73
2022/04/01 09:25:54;;;;;;;5.53;5.00;;;3.20;99.90;;;;;;5013352;28;20202;-70
2022/04/01 09:28:25;;;;;;;4.67;4.27;;;3.10;99.90;;;;;;5031881;28;20420;-71
2022/04/01 09:31:00;;;;;;;5.20;4.70;;;3.10;99.90;;;;;;5029833;28;20455;-70
2022/04/01 09:33:52;;;;;;;4.87;4.40;;;3.10;99.90;;;;;;5031775;28;20408;-71
2022/04/01 09:36:22;;;;;;;4.83;4.27;;;3.00;99.90;;;;;;5030457;28;20433;-71
2022/04/01 09:38:55;;;;;;;5.20;4.50;;;3.10;99.90;;;;;;5014007;28;20756;-71
2022/04/01 09:41:20;;;;;;;5.03;4.63;;;3.00;99.90;;;;;;5029889;28;20425;-71
2022/04/01 09:43:47;;;;;;;5.70;4.97;;;3.10;99.90;;;;;;5032077;28;20939;-71
2022/04/01 09:46:24;;;;;;;4.83;4.43;;;3.20;99.90;;;;;;5013677;28;20424;-70
2022/04/01 09:48:50;;;;;;;4.43;4.13;;;3.30;99.90;;;;;;5031655;28;20418;-70
2022/04/01 09:51:15;;;;;;;4.70;4.30;;;3.40;99.90;;;;;;5031089;28;20939;-71
2022/04/01 09:53:51;;;;;;;4.90;4.50;;;3.60;99.90;;;;;;5023250;28;20207;-70
2022/04/01 09:56:17;;;;;;;7.30;4.70;;;3.40;99.90;;;;;;5051813;28;20253;-71
2022/04/01 09:58:43;;;;;;;5.50;4.87;;;3.30;99.90;;;;;;5051478;28;20436;-71
2022/04/01 10:01:09;;;;;;;4.87;4.37;;;3.20;99.90;;;;;;5051141;28;20653;-71
2022/04/01 10:03:35;;;;;;;4.97;4.57;;;3.00;99.90;;;;;;5031628;28;20457;-70
2022/04/01 10:06:01;;;;;;;5.70;5.20;;;2.90;99.90;;;;;;5031440;28;20489;-72
2022/04/01 10:08:28;;;;;;;5.20;4.70;;;2.90;99.90;;;;;;5031607;28;20159;-71
2022/04/01 10:10:54;;;;;;;9.33;5.60;;;2.90;99.90;;;;;;5031110;28;20847;-72
2022/04/01 10:13:24;;;;;;;5.80;5.30;;;3.00;99.90;;;;;;5029863;28;20425;-71
2022/04/01 10:15:51;;;;;;;5.23;4.73;;;3.10;99.90;;;;;;5031197;28;20655;-71
2022/04/01 10:18:19;;;;;;;4.80;4.40;;;3.20;99.90;;;;;;5031582;28;20498;-71
2022/04/01 10:20:45;;;;;;;5.00;4.50;;;3.00;99.90;;;;;;5030619;28;20460;-71
2022/04/01 10:23:12;;;;;;;4.93;4.53;;;2.90;99.90;;;;;;5030944;28;20449;-71
2022/04/01 10:25:51;;;;;;;5.03;4.63;;;3.10;99.90;;;;;;5031085;28;20203;-70
2022/04/01 10:28:19;;;;;;;6.30;5.30;;;3.00;99.90;;;;;;5031292;28;20501;-71
2022/04/01 10:30:53;;;;;;;5.33;4.80;;;2.70;99.90;;;;;;5031176;28;20414;-71
2022/04/01 10:33:24;;;;;;;6.00;4.80;;;2.70;99.90;;;;;;5030214;28;20405;-71
2022/04/01 10:35:50;;;;;;;5.13;4.63;;;2.80;99.90;;;;;;5030993;28;20432;-70
2022/04/01 10:38:23;;;;;;;6.50;5.70;;;3.00;99.90;;;;;;5014103;28;20498;-69
2022/04/01 10:40:50;;;;;;;4.97;4.57;;;3.20;99.90;;;;;;5027621;28;20447;-70
2022/04/01 10:43:27;;;;;;;7.03;4.87;;;3.30;99.90;;;;;;5047067;28;20452;-71
2022/04/01 10:45:57;;;;;;;4.90;4.50;;;3.50;99.90;;;;;;5043605;28;20467;-71
2022/04/01 10:53:57;;;;;;;5.73;5.10;;;3.40;99.90;;;;;;5037318;28;20534;-71
2022/04/01 10:56:23;;;;;;;6.60;5.37;;;3.40;99.90;;;;;;5031074;28;20926;-70
2022/04/01 10:59:13;;;;;;;5.57;5.07;;;3.50;99.90;;;;;;5030564;28;20241;-72
2022/04/01 11:01:59;;;;;;;5.20;4.80;;;3.50;99.90;;;;;;5030487;28;20441;-71
2022/04/01 11:04:35;;;;;;;5.23;4.70;;;3.30;99.90;;;;;;5016612;28;20457;-71
2022/04/01 11:07:05;;;;;;;5.30;4.90;;;3.30;99.90;;;;;;5031081;28;20584;-71
2022/04/01 11:09:44;;;;;;;7.07;6.47;;;3.20;99.90;;;;;;5029498;28;20473;-70
2022/04/01 11:12:19;;;;;;;6.70;6.10;;;3.50;99.90;;;;;;5030412;28;20772;-70
2022/04/01 11:14:54;;;;;;;5.60;4.97;;;3.70;99.90;;;;;;5030597;28;20461;-70
2022/04/01 11:17:24;;;;;;;5.43;5.03;;;3.80;99.90;;;;;;5031191;28;20431;-71
2022/04/01 11:20:10;;;;;;;5.17;4.77;;;3.70;99.90;;;;;;5033525;28;20974;-70
2022/04/01 11:22:54;;;;;;;5.17;4.77;;;3.30;99.90;;;;;;5035314;28;20424;-70
2022/04/01 11:25:22;;;;;;;5.70;5.20;;;3.10;99.90;;;;;;5035403;28;20519;-70
2022/04/01 11:28:02;;;;;;;4.73;4.33;;;3.30;99.90;;;;;;5035360;28;20778;-71
2022/04/01 11:30:49;;;;;;;6.50;4.77;;;3.40;99.90;;;;;;5034296;28;20496;-70
2022/04/01 11:33:22;;;;;;;5.13;4.73;;;3.60;99.90;;;;;;5020773;28;20426;-70
2022/04/01 11:35:53;;;;;;;5.37;4.87;;;3.80;99.90;;;;;;5035167;28;20930;-70
2022/04/01 11:38:24;;;;;;;5.00;4.53;;;3.60;99.90;;;;;;5035281;28;20412;-70
2022/04/01 11:40:56;;;;;;;5.40;4.93;;;3.70;99.90;;;;;;5033031;28;20414;-71
2022/04/01 11:43:23;;;;;;;6.00;5.50;;;3.20;99.90;;;;;;5034963;28;20424;-71
2022/04/01 11:46:02;;;;;;;5.70;5.17;;;3.00;99.90;;;;;;5034630;28;20445;-71
2022/04/01 11:48:36;;;;;;;6.13;5.53;;;3.10;99.90;;;;;;5017537;28;20808;-72
2022/04/01 11:51:09;;;;;;;5.60;5.10;;;3.30;99.90;;;;;;5033966;28;20946;-71
2022/04/01 11:53:43;;;;;;;5.67;5.20;;;3.20;99.90;;;;;;5043123;28;20529;-71
2022/04/01 11:56:10;;;;;;;10.17;5.40;;;3.20;99.90;;;;;;5054725;28;20411;-71
2022/04/01 11:58:58;;;;;;;6.70;5.00;;;3.20;99.90;;;;;;5054626;28;20420;-71
2022/04/01 12:01:27;;;;;;;6.07;5.57;;;2.90;99.90;;;;;;5052086;28;20418;-71
2022/04/01 12:04:07;;;;;;;6.30;5.70;;;2.80;99.90;;;;;;5034368;28;20510;-71
2022/04/01 12:09:18;;;;;;;5.83;5.33;;;3.30;99.90;;;;;;5034112;28;21099;-71
2022/04/01 12:11:46;;;;;;;6.50;5.87;;;3.30;99.90;;;;;;5034127;28;20409;-71
2022/04/01 12:14:12;;;;;;;7.10;6.40;;;2.90;99.90;;;;;;5032489;28;20499;-71
2022/04/01 12:16:44;;;;;;;7.60;6.00;;;3.00;99.90;;;;;;5033907;28;20908;-71
2022/04/01 12:19:22;;;;;;;7.33;6.63;;;3.00;99.90;;;;;;5033559;28;20414;-70
2022/04/01 12:21:50;;;;;;;6.30;5.70;;;3.00;99.90;;;;;;5033404;28;20417;-72
2022/04/01 12:24:16;;;;;;;6.80;6.20;;;3.20;99.90;;;;;;5033767;28;20499;-71
2022/04/01 12:26:43;;;;;;;6.70;6.10;;;3.00;99.90;;;;;;5033968;28;20503;-71
2022/04/01 12:29:28;;;;;;;7.10;6.33;;;3.20;99.90;;;;;;5033971;28;20494;-70
2022/04/01 12:31:59;;;;;;;7.10;6.50;;;3.20;99.90;;;;;;5034385;28;20743;-70
2022/04/01 12:34:26;;;;;;;7.17;6.47;;;3.10;99.90;;;;;;5017240;28;20472;-70
2022/04/01 12:37:04;;;;;;;8.60;7.67;;;3.00;99.90;;;;;;5033732;28;20507;-70
2022/04/01 12:39:31;;;;;;;9.43;7.40;;;3.10;99.90;;;;;;5033846;28;20421;-70
2022/04/01 12:42:00;;;;;;;8.67;7.57;;;3.10;99.90;;;;;;5033943;28;20436;-72
2022/04/01 12:44:31;;;;;;;11.60;9.10;;;3.20;99.90;;;;;;5033566;28;20437;-72
2022/04/01 12:46:59;;;;;;;8.40;7.60;;;3.20;99.90;;;;;;5033211;28;20595;-70
2022/04/01 12:49:27;;;;;;;11.17;8.77;;;3.30;99.90;;;;;;5031933;28;20493;-70
2022/04/01 12:52:12;;;;;;;8.03;7.30;;;3.30;99.90;;;;;;5033270;28;20412;-71
2022/04/01 12:54:40;;;;;;;8.37;7.57;;;3.30;99.90;;;;;;5049895;28;20949;-71
2022/04/01 12:57:08;;;;;;;7.93;7.33;;;3.40;99.90;;;;;;5053090;28;20414;-71
2022/04/01 12:59:42;;;;;;;7.07;6.40;;;3.30;99.90;;;;;;5035956;28;20441;-71
2022/04/01 13:02:22;;;;;;;7.63;7.03;;;3.40;99.90;;;;;;5032747;28;20759;-71
2022/04/01 13:04:52;;;;;;;9.73;7.77;;;3.40;99.90;;;;;;5032972;28;20441;-71
2022/04/01 13:07:39;;;;;;;8.50;7.60;;;3.40;99.90;;;;;;5015105;28;20480;-71
2022/04/01 13:10:07;;;;;;;10.43;7.23;;;3.50;99.90;;;;;;5017503;28;20445;-71
2022/04/01 13:12:34;;;;;;;8.10;7.27;;;3.60;99.90;;;;;;5033003;28;20406;-70
2022/04/01 13:15:08;;;;;;;8.57;7.73;;;3.60;99.90;;;;;;5015163;28;20434;-71
2022/04/01 13:17:51;;;;;;;7.53;6.80;;;3.60;99.90;;;;;;5032767;28;20826;-70
2022/04/01 13:20:20;;;;;;;9.00;8.10;;;3.60;99.90;;;;;;5031380;28;20442;-70
2022/04/01 13:22:46;;;;;;;7.43;6.30;;;3.70;99.90;;;;;;5032735;28;20813;-71